Time;durP1;ratioP1;P1;durP2;ratioP2;P2;SDS_P1;SDS_P2;PMS_P1;PMS_P2;Temp;Humidity;BMP_temperature;BMP_pressure;BME280_temperature;BME280_humidity;BME280_pressure;Samples;Min_cycle;Max_cycle;Signal;HPM_P1;HPM_P2
2022/12/14 00:01:14;;;;;;;69.07;46.25;;;-4.00;94.10;;;;;;5002916;28;20405;-86
2022/12/14 00:03:40;;;;;;;69.78;46.20;;;-4.10;94.00;;;;;;5019841;28;20448;-86
2022/12/14 00:06:18;;;;;;;65.90;43.95;;;-4.10;93.60;;;;;;5020392;28;20436;-86
2022/12/14 00:08:46;;;;;;;62.23;42.80;;;-4.20;93.70;;;;;;5002200;28;20965;-87
2022/12/14 00:11:15;;;;;;;62.42;42.78;;;-4.20;93.50;;;;;;5020494;28;20417;-86
2022/12/14 00:13:42;;;;;;;67.07;44.55;;;-4.30;93.50;;;;;;5002678;28;20409;-86
2022/12/14 00:16:14;;;;;;;64.28;43.25;;;-4.30;93.40;;;;;;5019642;28;20416;-86
2022/12/14 00:18:40;;;;;;;67.13;44.92;;;-4.40;93.40;;;;;;5002905;28;20458;-86
2022/12/14 00:21:08;;;;;;;65.13;43.58;;;-4.40;93.60;;;;;;5018878;28;20401;-87
2022/12/14 00:23:34;;;;;;;66.43;44.13;;;-4.50;93.50;;;;;;5003603;28;20413;-86
2022/12/14 00:26:15;;;;;;;76.53;49.30;;;-4.50;93.70;;;;;;5018892;28;20416;-87
2022/12/14 00:28:42;;;;;;;76.40;48.73;;;-4.50;93.80;;;;;;5019673;28;20879;-86
2022/12/14 00:31:08;;;;;;;69.95;46.53;;;-4.50;94.00;;;;;;5018664;28;20405;-85
2022/12/14 00:33:34;;;;;;;69.28;44.90;;;-4.60;94.10;;;;;;5018820;28;20488;-87
2022/12/14 00:36:00;;;;;;;65.93;44.03;;;-4.50;94.10;;;;;;5002609;28;20567;-85
2022/12/14 00:38:27;;;;;;;70.40;45.28;;;-4.60;93.90;;;;;;5018604;28;20915;-87
2022/12/14 00:40:53;;;;;;;74.15;48.40;;;-4.70;93.40;;;;;;5019911;28;20424;-86
2022/12/14 00:43:19;;;;;;;72.13;46.53;;;-4.80;93.80;;;;;;5001946;28;20922;-86
2022/12/14 00:45:45;;;;;;;76.28;48.67;;;-4.80;93.90;;;;;;5019874;28;20401;-86
2022/12/14 00:48:12;;;;;;;60.42;41.45;;;-4.90;93.80;;;;;;5018326;28;21288;-86
2022/12/14 00:50:37;;;;;;;68.20;43.85;;;-4.90;93.60;;;;;;5019197;28;20476;-86
2022/12/14 00:53:03;;;;;;;70.35;46.58;;;-5.00;93.60;;;;;;5018629;28;21107;-86
2022/12/14 00:55:29;;;;;;;70.63;46.70;;;-5.00;93.70;;;;;;5002288;28;20405;-86
2022/12/14 00:57:54;;;;;;;57.23;39.10;;;-5.10;94.00;;;;;;5002927;28;20404;-86
2022/12/14 01:00:20;;;;;;;60.67;41.07;;;-5.10;93.30;;;;;;5018080;28;20405;-87
2022/12/14 01:02:46;;;;;;;60.28;40.17;;;-5.30;92.90;;;;;;5019953;28;20838;-86
2022/12/14 01:05:11;;;;;;;64.80;42.85;;;-5.40;92.70;;;;;;5017919;28;20424;-87
2022/12/14 01:07:37;;;;;;;73.97;46.57;;;-5.50;93.00;;;;;;5019298;28;20409;-85
2022/12/14 01:10:03;;;;;;;105.50;60.43;;;-5.60;93.30;;;;;;5018325;28;20479;-85
2022/12/14 01:12:28;;;;;;;61.97;41.10;;;-5.60;94.20;;;;;;5005119;28;20428;-87
2022/12/14 01:14:54;;;;;;;84.20;52.28;;;-5.60;94.40;;;;;;5022887;28;20409;-86
2022/12/14 01:17:20;;;;;;;75.10;47.40;;;-5.60;94.30;;;;;;5022659;28;20740;-86
2022/12/14 01:19:46;;;;;;;76.55;48.20;;;-5.60;94.40;;;;;;5023249;28;20424;-86
2022/12/14 01:22:11;;;;;;;80.82;50.70;;;-5.60;94.30;;;;;;5022264;28;20475;-86
2022/12/14 01:24:37;;;;;;;69.13;43.83;;;-5.60;94.40;;;;;;5023662;28;20405;-86
2022/12/14 01:27:02;;;;;;;76.70;48.53;;;-5.70;94.40;;;;;;5022070;28;20408;-86
2022/12/14 01:29:28;;;;;;;68.03;44.73;;;-5.70;94.30;;;;;;5023214;28;20441;-86
2022/12/14 01:31:53;;;;;;;67.40;43.63;;;-5.70;94.60;;;;;;5022123;28;20455;-87
2022/12/14 01:34:19;;;;;;;63.38;42.80;;;-5.70;94.20;;;;;;5021702;28;20470;-86
2022/12/14 01:36:45;;;;;;;70.07;44.67;;;-5.70;94.10;;;;;;5022396;28;20424;-87
2022/12/14 01:39:13;;;;;;;75.83;47.57;;;-5.80;94.00;;;;;;5021672;28;20973;-86
2022/12/14 01:41:51;;;;;;;58.78;39.45;;;-5.80;94.20;;;;;;5023214;28;20405;-85
2022/12/14 01:44:17;;;;;;;62.15;41.78;;;-5.80;94.00;;;;;;5005395;28;20417;-86
2022/12/14 01:47:04;;;;;;;71.55;43.35;;;-5.90;93.90;;;;;;5022824;28;20428;-86
2022/12/14 01:49:42;;;;;;;75.63;47.05;;;-5.90;93.80;;;;;;5022159;28;20433;-86
2022/12/14 01:52:13;;;;;;;65.17;41.73;;;-6.00;93.90;;;;;;5021555;28;20505;-87
2022/12/14 01:54:45;;;;;;;68.95;45.08;;;-6.00;94.20;;;;;;5022929;28;20409;-86
2022/12/14 01:57:12;;;;;;;68.25;43.38;;;-5.90;94.50;;;;;;5021239;28;20409;-86
2022/12/14 01:59:42;;;;;;;77.57;48.85;;;-5.90;94.50;;;;;;5006018;28;20416;-86
2022/12/14 02:02:10;;;;;;;85.13;52.22;;;-5.90;94.70;;;;;;5005604;28;20795;-86
2022/12/14 02:04:40;;;;;;;93.27;55.33;;;-5.90;94.90;;;;;;5021795;28;20442;-86
2022/12/14 02:07:06;;;;;;;85.90;52.63;;;-5.90;95.10;;;;;;5022634;28;20488;-87
2022/12/14 02:09:36;;;;;;;86.53;52.35;;;-5.90;95.20;;;;;;5004593;28;20464;-86
2022/12/14 02:12:20;;;;;;;76.88;48.20;;;-5.90;95.30;;;;;;5006316;28;20791;-86
2022/12/14 02:14:46;;;;;;;59.25;39.63;;;-5.90;95.10;;;;;;5004805;28;20425;-86
2022/12/14 02:17:13;;;;;;;74.82;46.78;;;-6.00;94.30;;;;;;5005506;28;20456;-86
2022/12/14 02:19:42;;;;;;;66.63;44.83;;;-6.10;94.30;;;;;;5005266;28;20401;-85
2022/12/14 02:22:26;;;;;;;70.30;45.45;;;-6.10;94.40;;;;;;5005015;28;20413;-87
2022/12/14 02:25:16;;;;;;;82.80;50.17;;;-6.10;94.30;;;;;;5021518;28;20417;-86
2022/12/14 02:28:17;;;;;;;70.10;43.17;;;-6.20;94.30;;;;;;5021040;28;20427;-86
2022/12/14 02:30:52;;;;;;;58.50;38.73;;;-6.30;94.20;;;;;;5002345;28;20523;-86
2022/12/14 02:33:23;;;;;;;57.05;39.40;;;-6.30;94.10;;;;;;5005609;28;20459;-86
2022/12/14 02:36:19;;;;;;;64.17;41.10;;;-6.40;93.10;;;;;;5020666;28;20424;-86
2022/12/14 02:38:51;;;;;;;60.85;38.17;;;-6.60;92.90;;;;;;5005049;28;20976;-86
2022/12/14 02:41:43;;;;;;;59.67;38.88;;;-6.70;92.80;;;;;;5021368;28;20417;-86
2022/12/14 02:44:37;;;;;;;55.53;35.72;;;-6.80;92.80;;;;;;5020522;28;20428;-86
2022/12/14 02:47:17;;;;;;;62.05;39.35;;;-6.90;92.90;;;;;;5021618;28;20551;-86
2022/12/14 02:50:07;;;;;;;57.57;38.30;;;-7.00;93.10;;;;;;5020830;28;20818;-85
2022/12/14 02:52:36;;;;;;;58.57;38.57;;;-7.00;93.20;;;;;;5020568;28;20482;-86
2022/12/14 02:55:12;;;;;;;60.97;38.92;;;-7.10;93.10;;;;;;5021704;28;21096;-86
2022/12/14 02:57:44;;;;;;;65.33;41.67;;;-7.10;93.40;;;;;;5020180;28;20409;-85
2022/12/14 03:00:10;;;;;;;50.95;34.42;;;-7.20;93.50;;;;;;5021286;28;20483;-87
2022/12/14 03:02:39;;;;;;;57.28;36.45;;;-7.20;93.50;;;;;;5020850;28;20417;-86
2022/12/14 03:05:05;;;;;;;72.82;44.38;;;-7.40;92.80;;;;;;5020760;28;20970;-86
2022/12/14 03:07:34;;;;;;;67.15;42.35;;;-7.40;93.40;;;;;;5004950;28;20496;-86
2022/12/14 03:10:22;;;;;;;69.60;43.03;;;-7.40;93.60;;;;;;5020378;28;21001;-87
2022/12/14 03:12:56;;;;;;;72.60;43.85;;;-7.40;93.70;;;;;;5004423;28;20416;-86
2022/12/14 03:15:24;;;;;;;72.57;44.53;;;-7.40;93.80;;;;;;5003927;28;20416;-86
2022/12/14 03:17:54;;;;;;;71.07;45.63;;;-7.40;94.00;;;;;;5020598;28;20474;-86
2022/12/14 03:20:24;;;;;;;69.10;42.53;;;-7.40;94.30;;;;;;5020818;28;20487;-85
2022/12/14 03:22:56;;;;;;;60.40;39.83;;;-7.40;94.70;;;;;;5003741;28;20925;-86
2022/12/14 03:25:40;;;;;;;69.78;44.10;;;-7.40;94.30;;;;;;5021183;28;20405;-86
2022/12/14 03:28:13;;;;;;;73.27;45.23;;;-7.40;94.20;;;;;;5019820;28;20464;-86
2022/12/14 03:30:41;;;;;;;68.00;42.88;;;-7.40;94.00;;;;;;5004129;28;21004;-86
2022/12/14 03:33:16;;;;;;;62.05;38.72;;;-7.40;94.00;;;;;;5003923;28;20413;-85
2022/12/14 03:35:48;;;;;;;54.55;36.67;;;-7.50;94.00;;;;;;5019508;28;20764;-87
2022/12/14 03:38:27;;;;;;;64.97;41.00;;;-7.50;93.40;;;;;;5004412;28;20413;-86
2022/12/14 03:41:07;;;;;;;56.73;36.67;;;-7.60;93.70;;;;;;5019423;28;20477;-86
2022/12/14 03:43:52;;;;;;;54.13;36.35;;;-7.60;93.70;;;;;;5020506;28;20427;-85
2022/12/14 03:46:44;;;;;;;64.57;40.90;;;-7.70;93.00;;;;;;5003683;28;20475;-86
2022/12/14 03:49:19;;;;;;;66.70;41.25;;;-7.80;93.00;;;;;;5019066;28;20443;-86
2022/12/14 03:52:04;;;;;;;64.57;40.63;;;-7.80;93.30;;;;;;5020999;28;20408;-86
2022/12/14 03:54:48;;;;;;;76.60;45.67;;;-7.90;93.40;;;;;;5020015;28;20439;-85
2022/12/14 03:57:22;;;;;;;73.72;45.50;;;-7.90;94.10;;;;;;5020143;28;20933;-86
2022/12/14 03:59:58;;;;;;;66.65;40.80;;;-7.80;94.60;;;;;;5020581;28;20417;-86
2022/12/14 04:02:36;;;;;;;60.05;37.88;;;-7.80;94.80;;;;;;5019028;28;20428;-85
2022/12/14 04:05:06;;;;;;;61.45;38.90;;;-7.80;94.40;;;;;;5020182;28;20421;-87
2022/12/14 04:08:12;;;;;;;65.82;41.60;;;-7.80;94.30;;;;;;5003304;28;20421;-85
2022/12/14 04:19:22;;;;;;;65.50;40.83;;;-7.90;93.60;;;;;;5002574;28;20417;-86
2022/12/14 04:22:25;;;;;;;64.90;41.83;;;-7.90;93.30;;;;;;5003891;28;20411;-87
2022/12/14 04:28:08;;;;;;;58.03;37.63;;;-7.90;94.00;;;;;;5002708;28;20623;-86
2022/12/14 04:30:38;;;;;;;64.13;40.43;;;-7.90;93.60;;;;;;5020187;28;20441;-86
2022/12/14 04:35:57;;;;;;;60.13;38.77;;;-8.00;94.60;;;;;;5002956;28;20483;-86
2022/12/14 04:38:35;;;;;;;59.63;38.22;;;-7.90;94.40;;;;;;5019099;28;20409;-85
2022/12/14 04:41:06;;;;;;;56.65;36.70;;;-7.90;94.20;;;;;;5002419;28;20505;-87
2022/12/14 04:43:38;;;;;;;64.00;39.80;;;-7.90;94.10;;;;;;5020426;28;20942;-87
2022/12/14 04:46:11;;;;;;;64.88;39.47;;;-7.90;94.30;;;;;;5001136;28;20424;-86
2022/12/14 04:49:08;;;;;;;57.78;37.45;;;-7.90;94.20;;;;;;5019201;28;20496;-87
2022/12/14 04:51:56;;;;;;;68.22;42.30;;;-7.90;94.10;;;;;;5003195;28;20494;-87
2022/12/14 04:54:34;;;;;;;62.15;39.22;;;-7.90;94.20;;;;;;5001636;28;20423;-86
2022/12/14 04:57:05;;;;;;;60.70;39.22;;;-7.90;94.20;;;;;;5019395;28;20420;-86
2022/12/14 04:59:31;;;;;;;62.60;39.47;;;-7.90;93.90;;;;;;5018800;28;20492;-87
2022/12/14 05:02:18;;;;;;;65.18;41.30;;;-7.90;93.90;;;;;;5002596;28;20828;-87
2022/12/14 05:05:11;;;;;;;64.03;40.10;;;-8.00;94.00;;;;;;5019842;28;21005;-86
2022/12/14 05:07:43;;;;;;;53.47;35.05;;;-7.90;94.00;;;;;;5018186;28;20915;-86
2022/12/14 05:10:17;;;;;;;62.30;38.22;;;-7.90;93.70;;;;;;5002491;28;20432;-86
2022/12/14 05:12:53;;;;;;;58.33;36.83;;;-8.00;93.50;;;;;;5018569;28;20424;-86
2022/12/14 05:15:29;;;;;;;63.25;38.33;;;-8.00;93.50;;;;;;5002043;28;20420;-86
2022/12/14 05:17:55;;;;;;;62.33;38.47;;;-8.00;93.80;;;;;;5019481;28;20496;-86
2022/12/14 05:20:22;;;;;;;52.03;34.72;;;-8.00;93.80;;;;;;5017950;28;20483;-86
2022/12/14 05:22:48;;;;;;;59.88;37.95;;;-8.10;93.20;;;;;;5003235;28;20773;-86
2022/12/14 05:25:14;;;;;;;53.90;34.38;;;-8.10;93.20;;;;;;5001649;28;20462;-86
2022/12/14 05:27:40;;;;;;;55.88;36.15;;;-8.10;93.20;;;;;;5019148;28;20405;-86
2022/12/14 05:30:07;;;;;;;57.15;36.25;;;-8.20;92.70;;;;;;5018381;28;20439;-86
2022/12/14 05:32:33;;;;;;;58.75;36.30;;;-8.30;92.70;;;;;;5018305;28;20876;-87
2022/12/14 05:34:59;;;;;;;51.40;33.55;;;-8.30;92.90;;;;;;5019467;28;20750;-87
2022/12/14 05:37:24;;;;;;;51.42;34.33;;;-8.40;92.90;;;;;;5018018;28;20921;-86
2022/12/14 05:39:50;;;;;;;66.03;41.88;;;-8.40;92.80;;;;;;5003263;28;20427;-86
2022/12/14 05:42:16;;;;;;;62.08;38.13;;;-8.50;93.30;;;;;;5001499;28;20421;-85
2022/12/14 05:44:43;;;;;;;68.43;41.00;;;-8.50;93.70;;;;;;5017969;28;20826;-85
2022/12/14 05:47:09;;;;;;;57.50;36.63;;;-8.40;94.00;;;;;;5018077;28;20508;-87
2022/12/14 05:49:35;;;;;;;66.07;40.40;;;-8.40;94.20;;;;;;5001759;28;21075;-86
2022/12/14 05:52:00;;;;;;;66.37;41.87;;;-8.40;94.20;;;;;;5002047;28;20487;-86
2022/12/14 05:54:26;;;;;;;72.03;43.95;;;-8.30;94.60;;;;;;5001572;28;20416;-86
2022/12/14 05:56:52;;;;;;;73.13;44.10;;;-8.20;94.70;;;;;;5019185;28;20463;-87
2022/12/14 05:59:17;;;;;;;54.53;35.38;;;-8.20;94.70;;;;;;5021273;28;20416;-86
2022/12/14 06:01:44;;;;;;;51.30;34.73;;;-8.30;94.50;;;;;;5022844;28;20463;-86
2022/12/14 06:04:14;;;;;;;51.03;32.67;;;-8.30;93.80;;;;;;5021425;28;20869;-86
2022/12/14 06:06:40;;;;;;;51.35;32.83;;;-8.40;93.20;;;;;;5005688;28;20404;-86
2022/12/14 06:09:08;;;;;;;64.60;39.83;;;-8.50;92.80;;;;;;5003996;28;20420;-87
2022/12/14 06:11:37;;;;;;;57.17;36.30;;;-8.50;93.40;;;;;;4988402;28;20470;-86
2022/12/14 06:14:04;;;;;;;69.03;42.57;;;-8.50;93.60;;;;;;5005949;28;20507;-87
2022/12/14 06:16:29;;;;;;;59.08;37.10;;;-8.50;93.80;;;;;;5004078;28;20412;-86
2022/12/14 06:18:57;;;;;;;65.00;39.53;;;-8.50;94.20;;;;;;4989260;28;21068;-86
2022/12/14 06:21:28;;;;;;;66.05;41.35;;;-8.50;94.20;;;;;;4984677;28;20503;-86
2022/12/14 06:23:54;;;;;;;60.50;38.83;;;-8.50;94.40;;;;;;4969381;28;20417;-86
2022/12/14 06:26:21;;;;;;;62.53;38.42;;;-8.40;94.50;;;;;;4995749;28;20407;-85
2022/12/14 06:28:46;;;;;;;66.90;40.53;;;-8.40;94.50;;;;;;5029487;28;20405;-86
2022/12/14 06:31:18;;;;;;;64.47;39.23;;;-8.40;94.60;;;;;;5034025;28;20479;-85
2022/12/14 06:33:44;;;;;;;70.65;42.40;;;-8.40;94.80;;;;;;5037990;28;20494;-86
2022/12/14 06:36:22;;;;;;;69.88;41.83;;;-8.40;94.70;;;;;;5022276;28;20429;-87
2022/12/14 06:38:52;;;;;;;69.07;41.60;;;-8.40;94.70;;;;;;5037363;28;20475;-86
2022/12/14 06:41:20;;;;;;;54.03;33.97;;;-8.40;94.50;;;;;;5038167;28;20455;-86
2022/12/14 06:43:46;;;;;;;55.17;35.10;;;-8.40;94.20;;;;;;5020822;28;20409;-86
2022/12/14 06:46:13;;;;;;;50.40;32.15;;;-8.50;93.60;;;;;;5036763;28;20467;-87
2022/12/14 06:48:39;;;;;;;48.72;32.00;;;-8.50;93.30;;;;;;5021671;28;20939;-86
2022/12/14 06:51:05;;;;;;;53.15;33.67;;;-8.60;92.90;;;;;;5003570;28;20483;-86
2022/12/14 06:53:33;;;;;;;53.60;34.67;;;-8.60;92.70;;;;;;5038482;28;20448;-85
2022/12/14 06:56:13;;;;;;;53.20;34.92;;;-8.70;92.70;;;;;;5020544;28;20405;-87
2022/12/14 06:58:39;;;;;;;76.75;45.67;;;-8.70;92.60;;;;;;5020642;28;20431;-86
2022/12/14 07:01:07;;;;;;;53.80;34.57;;;-8.80;93.20;;;;;;5020177;28;20401;-85
2022/12/14 07:03:34;;;;;;;65.30;40.08;;;-8.80;93.60;;;;;;5037014;28;20408;-86
2022/12/14 07:06:01;;;;;;;57.90;35.75;;;-8.80;93.60;;;;;;5021471;28;20505;-86
2022/12/14 07:08:28;;;;;;;57.97;36.67;;;-8.90;93.70;;;;;;5036843;28;20420;-86
2022/12/14 07:10:54;;;;;;;64.50;41.30;;;-8.70;93.60;;;;;;5036969;28;20428;-86
2022/12/14 07:13:20;;;;;;;61.83;38.27;;;-8.70;94.10;;;;;;5019868;28;20397;-86
2022/12/14 07:15:57;;;;;;;58.70;36.42;;;-8.70;94.20;;;;;;5036955;28;20998;-86
2022/12/14 07:18:23;;;;;;;56.70;36.72;;;-8.70;94.00;;;;;;5037342;28;20417;-86
2022/12/14 07:21:06;;;;;;;52.25;33.05;;;-8.70;93.70;;;;;;5020125;28;20420;-86
2022/12/14 07:23:33;;;;;;;51.25;33.30;;;-8.80;93.50;;;;;;5021309;28;20421;-87
2022/12/14 07:26:10;;;;;;;54.47;34.22;;;-8.80;93.00;;;;;;5036277;28;20409;-86
2022/12/14 07:28:37;;;;;;;56.90;35.60;;;-8.80;93.00;;;;;;5025448;28;20524;-87
2022/12/14 07:31:06;;;;;;;62.67;37.92;;;-8.80;93.40;;;;;;5002925;28;20433;-86
2022/12/14 07:33:33;;;;;;;60.47;36.75;;;-8.80;93.80;;;;;;5001141;28;20458;-87
2022/12/14 07:36:11;;;;;;;66.05;38.63;;;-8.70;93.90;;;;;;4984200;28;20427;-86
2022/12/14 07:38:38;;;;;;;57.00;35.55;;;-8.70;93.80;;;;;;4983541;28;20490;-87
2022/12/14 07:41:07;;;;;;;61.03;37.22;;;-8.70;93.90;;;;;;4985232;28;20411;-86
2022/12/14 07:43:32;;;;;;;65.82;38.83;;;-8.70;93.70;;;;;;4983320;28;21106;-85
2022/12/14 07:46:10;;;;;;;61.00;39.13;;;-8.70;93.80;;;;;;4984529;28;20420;-86
2022/12/14 07:48:37;;;;;;;58.80;36.13;;;-8.70;94.10;;;;;;4984128;28;20569;-87
2022/12/14 07:51:05;;;;;;;66.65;39.25;;;-8.70;94.20;;;;;;4967733;28;20430;-86
2022/12/14 07:53:31;;;;;;;64.10;40.60;;;-8.60;94.20;;;;;;4968843;28;20435;-87
2022/12/14 07:56:10;;;;;;;58.65;35.13;;;-8.60;94.30;;;;;;4983231;28;20449;-86
2022/12/14 07:58:36;;;;;;;57.17;34.78;;;-8.70;93.90;;;;;;4984808;28;20422;-87
2022/12/14 08:01:14;;;;;;;53.28;34.55;;;-8.70;92.90;;;;;;4967467;28;20411;-86
2022/12/14 08:04:07;;;;;;;57.55;35.00;;;-8.80;92.80;;;;;;4967489;28;20415;-86
2022/12/14 08:06:33;;;;;;;62.23;37.43;;;-8.90;92.60;;;;;;4966984;28;20418;-86
2022/12/14 08:08:59;;;;;;;59.92;38.15;;;-8.90;92.60;;;;;;4983108;28;20833;-87
2022/12/14 08:11:26;;;;;;;86.10;51.15;;;-8.90;93.00;;;;;;4984391;28;20414;-87
2022/12/14 08:13:59;;;;;;;59.50;36.97;;;-8.90;93.50;;;;;;4983371;28;20777;-86
2022/12/14 08:16:25;;;;;;;63.63;39.67;;;-8.80;94.00;;;;;;4983805;28;20417;-87
2022/12/14 08:18:53;;;;;;;65.80;41.63;;;-8.70;93.80;;;;;;4983172;28;20859;-87
2022/12/14 08:21:20;;;;;;;62.83;39.45;;;-8.60;93.90;;;;;;4983394;28;20442;-86
2022/12/14 08:23:47;;;;;;;75.15;45.85;;;-8.60;93.40;;;;;;4984113;28;20538;-86
2022/12/14 08:26:13;;;;;;;76.95;47.10;;;-8.60;93.40;;;;;;4982653;28;20988;-87
2022/12/14 08:28:39;;;;;;;68.13;44.05;;;-8.50;93.80;;;;;;4968236;28;20489;-85
2022/12/14 08:31:08;;;;;;;67.53;42.57;;;-8.40;94.30;;;;;;4966736;28;20485;-87
2022/12/14 08:33:36;;;;;;;56.63;37.33;;;-8.30;94.20;;;;;;4984092;28;20782;-87
2022/12/14 08:36:09;;;;;;;59.40;37.08;;;-8.30;93.60;;;;;;4983139;28;20411;-87
2022/12/14 08:38:35;;;;;;;55.95;36.25;;;-8.30;93.20;;;;;;4983571;28;20411;-87
2022/12/14 08:41:06;;;;;;;66.05;40.70;;;-8.20;93.20;;;;;;4967392;28;20445;-87
2022/12/14 08:43:32;;;;;;;62.93;39.07;;;-8.10;93.50;;;;;;4982844;28;20996;-87
2022/12/14 08:45:58;;;;;;;64.07;40.08;;;-8.00;93.60;;;;;;4968305;28;20414;-87
2022/12/14 08:48:24;;;;;;;64.50;40.70;;;-7.90;93.60;;;;;;4966644;28;20766;-87
2022/12/14 08:50:50;;;;;;;60.70;37.17;;;-7.80;94.20;;;;;;4983574;28;20452;-87
2022/12/14 08:53:16;;;;;;;57.47;37.00;;;-7.60;94.30;;;;;;4982749;28;20407;-86
2022/12/14 08:55:42;;;;;;;63.27;40.03;;;-7.50;93.90;;;;;;4982633;28;20560;-87
2022/12/14 08:58:09;;;;;;;62.63;39.55;;;-7.50;93.60;;;;;;4967102;28;20418;-86
2022/12/14 09:00:37;;;;;;;83.07;47.80;;;-7.30;94.40;;;;;;4982837;28;20501;-86
2022/12/14 09:03:04;;;;;;;76.38;47.15;;;-7.10;94.50;;;;;;4984383;28;20509;-86
2022/12/14 09:05:30;;;;;;;55.35;35.65;;;-7.00;94.80;;;;;;4966383;28;20458;-86
2022/12/14 09:07:55;;;;;;;63.40;41.47;;;-6.90;94.60;;;;;;4967577;28;20913;-88
2022/12/14 09:10:22;;;;;;;62.97;39.10;;;-6.80;93.70;;;;;;4966227;28;20766;-85
2022/12/14 09:12:47;;;;;;;63.63;41.33;;;-6.70;93.50;;;;;;4967171;28;21582;-87
2022/12/14 09:15:13;;;;;;;96.40;56.63;;;-6.60;93.60;;;;;;4967112;28;21225;-86
2022/12/14 09:17:39;;;;;;;82.35;50.70;;;-6.40;94.00;;;;;;4966389;28;21222;-86
2022/12/14 09:20:05;;;;;;;69.68;43.97;;;-6.30;94.40;;;;;;4967414;28;20414;-86
2022/12/14 09:22:31;;;;;;;70.33;45.20;;;-6.10;94.40;;;;;;4981844;28;20410;-86
2022/12/14 09:24:56;;;;;;;68.47;43.10;;;-6.00;94.00;;;;;;4985255;28;20423;-87
2022/12/14 09:27:22;;;;;;;67.37;43.03;;;-5.90;93.90;;;;;;4982329;28;20403;-87
2022/12/14 09:29:51;;;;;;;58.90;38.93;;;-5.70;93.90;;;;;;4992517;28;20439;-86
2022/12/14 09:32:16;;;;;;;56.67;36.40;;;-5.50;94.30;;;;;;5010396;28;20417;-85
2022/12/14 09:34:42;;;;;;;51.17;33.28;;;-5.20;94.30;;;;;;4993103;28;20822;-87
2022/12/14 09:37:08;;;;;;;50.63;32.63;;;-4.80;93.80;;;;;;4996444;28;20414;-87
2022/12/14 09:39:34;;;;;;;45.73;30.90;;;-4.40;93.10;;;;;;5027817;28;20443;-86
2022/12/14 09:42:06;;;;;;;45.45;31.85;;;-4.10;92.40;;;;;;5014582;28;20430;-87
2022/12/14 09:44:58;;;;;;;45.50;31.08;;;-3.70;92.30;;;;;;4991741;28;20434;-87
2022/12/14 09:47:40;;;;;;;42.25;28.98;;;-3.40;91.70;;;;;;4996651;28;20415;-86
2022/12/14 09:50:16;;;;;;;48.10;30.05;;;-3.10;91.10;;;;;;4994067;28;20819;-87
2022/12/14 09:52:48;;;;;;;45.03;29.43;;;-2.80;90.90;;;;;;4994192;28;20418;-87
2022/12/14 09:55:33;;;;;;;41.65;28.48;;;-2.70;91.10;;;;;;4994439;28;20418;-86
2022/12/14 09:58:06;;;;;;;43.00;28.63;;;-2.70;90.40;;;;;;4994977;28;20470;-86
2022/12/14 10:00:43;;;;;;;43.85;28.92;;;-2.60;90.10;;;;;;5003050;28;20812;-87
2022/12/14 10:03:11;;;;;;;44.85;29.13;;;-2.60;90.30;;;;;;5039317;28;20795;-86
2022/12/14 10:06:03;;;;;;;41.97;27.42;;;-2.60;90.60;;;;;;5037804;28;20756;-86
2022/12/14 10:08:49;;;;;;;38.97;26.55;;;-2.60;90.40;;;;;;4987467;28;20468;-86
2022/12/14 10:11:42;;;;;;;36.97;26.17;;;-2.60;90.10;;;;;;5021452;28;20470;-87
2022/12/14 10:14:29;;;;;;;37.88;26.27;;;-2.50;89.30;;;;;;5037633;28;20504;-87
2022/12/14 10:17:06;;;;;;;37.28;26.27;;;-2.50;90.50;;;;;;5039113;28;20799;-86
2022/12/14 10:19:49;;;;;;;36.33;25.73;;;-2.40;90.60;;;;;;5037542;28;20417;-86
2022/12/14 10:22:24;;;;;;;33.63;24.75;;;-2.40;90.70;;;;;;5037908;28;20536;-87
2022/12/14 10:25:11;;;;;;;35.55;26.25;;;-2.30;90.20;;;;;;5038453;28;20413;-86
2022/12/14 10:27:38;;;;;;;37.53;26.25;;;-2.30;90.30;;;;;;5037208;28;20413;-86
2022/12/14 10:30:13;;;;;;;38.88;26.58;;;-2.30;90.50;;;;;;5038583;28;20931;-87
2022/12/14 10:32:44;;;;;;;35.75;25.33;;;-2.30;90.80;;;;;;5037772;28;20409;-86
2022/12/14 10:35:15;;;;;;;33.85;25.00;;;-2.30;90.30;;;;;;5021573;28;20405;-87
2022/12/14 10:37:52;;;;;;;40.63;27.38;;;-2.20;90.70;;;;;;5020677;28;20420;-86
2022/12/14 10:40:24;;;;;;;34.33;24.43;;;-2.20;90.70;;;;;;5020541;28;20420;-86
2022/12/14 10:43:07;;;;;;;32.63;23.85;;;-2.10;90.70;;;;;;5038547;28;20460;-86
2022/12/14 10:45:54;;;;;;;32.30;23.60;;;-1.90;90.80;;;;;;5019607;28;20416;-86
2022/12/14 10:48:39;;;;;;;32.95;23.70;;;-1.60;90.50;;;;;;5020975;28;20421;-86
2022/12/14 10:51:26;;;;;;;25.97;19.37;;;-1.20;90.20;;;;;;5037855;28;20765;-87
2022/12/14 10:54:30;;;;;;;27.75;20.83;;;-0.80;88.30;;;;;;5037106;28;20413;-88
2022/12/14 10:56:56;;;;;;;28.52;21.08;;;-0.30;86.60;;;;;;5014791;28;20425;-87
2022/12/14 10:59:25;;;;;;;28.50;21.58;;;0.10;85.50;;;;;;5037971;28;20405;-86
2022/12/14 11:02:02;;;;;;;29.23;22.15;;;0.20;84.40;;;;;;5036688;28;20413;-86
2022/12/14 11:04:32;;;;;;;30.15;23.30;;;0.20;82.60;;;;;;5035020;28;20789;-87
2022/12/14 11:07:10;;;;;;;29.42;23.13;;;0.10;84.80;;;;;;5003861;28;20959;-86
2022/12/14 11:09:37;;;;;;;27.58;21.40;;;0.00;84.10;;;;;;5004393;28;20439;-86
2022/12/14 11:12:16;;;;;;;31.13;23.05;;;0.00;83.30;;;;;;5004078;28;20405;-87
2022/12/14 11:15:00;;;;;;;31.20;24.30;;;-0.10;85.10;;;;;;5003919;28;21260;-87
2022/12/14 11:17:41;;;;;;;31.23;23.70;;;-0.10;84.50;;;;;;5004987;28;20500;-85
2022/12/14 11:20:21;;;;;;;29.27;23.30;;;-0.10;85.20;;;;;;5003555;28;20412;-86
2022/12/14 11:22:53;;;;;;;29.98;22.48;;;0.00;84.60;;;;;;5003492;28;20428;-86
2022/12/14 11:25:27;;;;;;;31.42;22.50;;;0.00;83.90;;;;;;5004234;28;20528;-86
2022/12/14 11:27:53;;;;;;;31.25;22.80;;;-0.10;82.90;;;;;;5003340;28;20445;-86
2022/12/14 11:30:19;;;;;;;31.08;22.67;;;-0.30;84.60;;;;;;5004490;28;20901;-85
2022/12/14 11:32:49;;;;;;;30.08;22.38;;;-0.20;86.10;;;;;;5003563;28;20395;-86
2022/12/14 11:35:17;;;;;;;31.00;23.38;;;-0.60;85.80;;;;;;5003757;28;20509;-86
2022/12/14 11:37:43;;;;;;;32.67;23.30;;;-0.60;88.10;;;;;;5003298;28;20440;-86
2022/12/14 11:40:36;;;;;;;28.05;21.33;;;-0.40;88.60;;;;;;5003672;28;20440;-87
2022/12/14 11:43:03;;;;;;;26.67;20.10;;;-0.20;87.00;;;;;;4987256;28;20880;-86
2022/12/14 11:45:31;;;;;;;25.58;19.65;;;-0.10;85.10;;;;;;5002746;28;20508;-85
2022/12/14 11:48:30;;;;;;;25.23;19.55;;;0.10;84.00;;;;;;5003919;28;20474;-86
2022/12/14 11:51:12;;;;;;;26.60;20.00;;;0.50;83.80;;;;;;4975697;28;20478;-84
2022/12/14 11:53:39;;;;;;;25.80;19.35;;;0.70;83.40;;;;;;5002569;28;20919;-86
2022/12/14 11:56:10;;;;;;;23.33;18.55;;;0.80;83.10;;;;;;5003936;28;20405;-86
2022/12/14 11:58:44;;;;;;;24.63;18.60;;;1.00;82.20;;;;;;5002649;28;20412;-86
2022/12/14 12:01:13;;;;;;;23.55;17.27;;;1.40;81.10;;;;;;5003981;28;20864;-85
2022/12/14 12:03:55;;;;;;;22.73;16.73;;;1.50;79.20;;;;;;5003173;28;20409;-86
2022/12/14 12:06:24;;;;;;;21.60;16.70;;;1.70;78.50;;;;;;5002801;28;20975;-86
2022/12/14 12:08:59;;;;;;;20.15;15.38;;;1.90;78.70;;;;;;5004172;28;20815;-86
2022/12/14 12:11:30;;;;;;;20.40;14.60;;;2.10;77.60;;;;;;5001128;28;20572;-87
2022/12/14 12:14:05;;;;;;;19.10;14.53;;;2.50;74.10;;;;;;5003005;28;20409;-87
2022/12/14 12:16:31;;;;;;;18.05;13.93;;;2.80;74.90;;;;;;5001972;28;20405;-87
2022/12/14 12:19:07;;;;;;;20.00;15.60;;;2.90;71.50;;;;;;5003008;28;20474;-87
2022/12/14 12:21:36;;;;;;;20.88;15.15;;;2.80;71.80;;;;;;5003295;28;20479;-88
2022/12/14 12:24:10;;;;;;;18.10;14.40;;;2.40;72.00;;;;;;5002325;28;20431;-87
2022/12/14 12:26:41;;;;;;;20.05;15.82;;;2.10;74.30;;;;;;4986626;28;20422;-87
2022/12/14 12:29:24;;;;;;;18.73;14.15;;;1.90;76.80;;;;;;4982606;28;20501;-86
2022/12/14 12:32:19;;;;;;;19.25;13.98;;;1.60;74.50;;;;;;4982867;28;20894;-87
2022/12/14 12:34:57;;;;;;;18.67;14.77;;;1.40;75.90;;;;;;4980524;28;20445;-86
2022/12/14 12:37:59;;;;;;;19.17;14.13;;;1.10;78.10;;;;;;4966333;28;20497;-85
2022/12/14 12:40:53;;;;;;;18.95;14.35;;;0.90;78.50;;;;;;4983163;28;20818;-86
2022/12/14 12:43:32;;;;;;;19.45;14.20;;;0.70;79.50;;;;;;4983887;28;20881;-86
2022/12/14 12:46:09;;;;;;;19.02;13.60;;;0.50;79.00;;;;;;4982317;28;20419;-86
2022/12/14 12:49:02;;;;;;;20.10;14.38;;;0.40;79.50;;;;;;4983978;28;20399;-87
2022/12/14 12:51:32;;;;;;;19.35;14.38;;;0.30;82.30;;;;;;4982754;28;20438;-85
2022/12/14 12:54:07;;;;;;;20.02;14.73;;;0.20;82.30;;;;;;4983102;28;20418;-86
2022/12/14 12:56:44;;;;;;;17.40;13.75;;;0.20;84.00;;;;;;4987368;28;20805;-84
2022/12/14 12:59:23;;;;;;;20.50;15.00;;;0.10;83.40;;;;;;5000422;28;20412;-86
2022/12/14 13:01:53;;;;;;;17.80;13.18;;;0.00;84.30;;;;;;4986698;28;20417;-86
2022/12/14 13:04:50;;;;;;;18.38;13.18;;;-0.10;82.90;;;;;;5000364;28;20482;-86
2022/12/14 13:07:40;;;;;;;17.90;13.00;;;-0.10;84.10;;;;;;4988559;28;20417;-87
2022/12/14 13:10:17;;;;;;;19.05;12.65;;;0.10;85.50;;;;;;5002394;28;20468;-87